sensor_id;sensor_type;location;lat;lon;timestamp;pressure;altitude;pressure_sealevel;temperature;humidity
81990;BME280;71485;51.638;-0.182;2024-02-23T00:00:33;97599.25;;;23.38;26.34
81990;BME280;71485;51.638;-0.182;2024-02-23T00:02:59;97597.31;;;23.74;26.20
81990;BME280;71485;51.638;-0.182;2024-02-23T00:05:28;97590.35;;;23.44;26.23
81990;BME280;71485;51.638;-0.182;2024-02-23T00:07:55;97585.42;;;23.69;26.23
81990;BME280;71485;51.638;-0.182;2024-02-23T00:10:21;97587.85;;;23.62;26.27
81990;BME280;71485;51.638;-0.182;2024-02-23T00:12:41;97585.37;;;23.71;26.20
81990;BME280;71485;51.638;-0.182;2024-02-23T00:15:22;97585.38;;;23.63;26.22
81990;BME280;71485;51.638;-0.182;2024-02-23T00:17:32;97571.30;;;23.26;26.28
81990;BME280;71485;51.638;-0.182;2024-02-23T00:19:58;97567.31;;;23.30;26.29
81990;BME280;71485;51.638;-0.182;2024-02-23T00:22:23;97571.73;;;23.53;26.30
81990;BME280;71485;51.638;-0.182;2024-02-23T00:24:49;97571.48;;;23.48;26.36
81990;BME280;71485;51.638;-0.182;2024-02-23T00:27:17;97571.21;;;23.47;26.37
81990;BME280;71485;51.638;-0.182;2024-02-23T00:29:40;97571.85;;;23.62;26.40
81990;BME280;71485;51.638;-0.182;2024-02-23T00:32:06;97568.51;;;23.30;26.46
81990;BME280;71485;51.638;-0.182;2024-02-23T00:34:31;97569.91;;;23.60;26.39
81990;BME280;71485;51.638;-0.182;2024-02-23T00:36:58;97569.85;;;23.44;26.29
81990;BME280;71485;51.638;-0.182;2024-02-23T00:39:23;97565.87;;;23.40;26.29
81990;BME280;71485;51.638;-0.182;2024-02-23T00:41:48;97567.21;;;23.64;26.28
81990;BME280;71485;51.638;-0.182;2024-02-23T00:44:14;97566.78;;;23.66;26.25
81990;BME280;71485;51.638;-0.182;2024-02-23T00:46:40;97564.88;;;23.26;26.35
81990;BME280;71485;51.638;-0.182;2024-02-23T00:49:06;97564.98;;;23.22;26.38
81990;BME280;71485;51.638;-0.182;2024-02-23T00:51:31;97564.60;;;23.52;26.31
81990;BME280;71485;51.638;-0.182;2024-02-23T00:53:56;97563.94;;;23.43;26.36
81990;BME280;71485;51.638;-0.182;2024-02-23T00:56:23;97562.73;;;23.18;26.34
81990;BME280;71485;51.638;-0.182;2024-02-23T00:58:49;97556.76;;;23.40;26.40
81990;BME280;71485;51.638;-0.182;2024-02-23T01:01:13;97550.84;;;23.42;26.33
81990;BME280;71485;51.638;-0.182;2024-02-23T01:03:39;97543.82;;;23.33;26.39
81990;BME280;71485;51.638;-0.182;2024-02-23T01:06:04;97537.36;;;23.38;26.35
81990;BME280;71485;51.638;-0.182;2024-02-23T01:08:31;97535.76;;;23.40;26.30
81990;BME280;71485;51.638;-0.182;2024-02-23T01:11:01;97532.96;;;23.10;26.33
81990;BME280;71485;51.638;-0.182;2024-02-23T01:13:22;97534.73;;;23.36;26.30
81990;BME280;71485;51.638;-0.182;2024-02-23T01:15:47;97524.19;;;23.34;26.30
81990;BME280;71485;51.638;-0.182;2024-02-23T01:18:13;97520.28;;;22.81;26.31
81990;BME280;71485;51.638;-0.182;2024-02-23T01:20:38;97515.67;;;23.23;26.39
81990;BME280;71485;51.638;-0.182;2024-02-23T01:23:04;97510.76;;;22.98;26.41
81990;BME280;71485;51.638;-0.182;2024-02-23T01:25:29;97512.44;;;23.28;26.35
81990;BME280;71485;51.638;-0.182;2024-02-23T01:27:55;97507.12;;;23.04;26.31
81990;BME280;71485;51.638;-0.182;2024-02-23T01:30:20;97506.71;;;23.19;26.35
81990;BME280;71485;51.638;-0.182;2024-02-23T01:32:46;97505.28;;;23.19;26.37
81990;BME280;71485;51.638;-0.182;2024-02-23T01:35:12;97502.05;;;23.17;26.37
81990;BME280;71485;51.638;-0.182;2024-02-23T01:37:38;97498.80;;;23.14;26.39
81990;BME280;71485;51.638;-0.182;2024-02-23T01:40:05;97493.27;;;22.84;26.44
81990;BME280;71485;51.638;-0.182;2024-02-23T01:42:29;97493.09;;;23.12;26.38
81990;BME280;71485;51.638;-0.182;2024-02-23T01:44:55;97494.52;;;23.12;26.38
81990;BME280;71485;51.638;-0.182;2024-02-23T01:47:21;97486.86;;;23.01;26.24
81990;BME280;71485;51.638;-0.182;2024-02-23T01:49:46;97482.94;;;23.07;26.37
81990;BME280;71485;51.638;-0.182;2024-02-23T01:52:11;97487.07;;;23.07;26.39
81990;BME280;71485;51.638;-0.182;2024-02-23T01:54:37;97490.04;;;23.06;26.39
81990;BME280;71485;51.638;-0.182;2024-02-23T01:57:07;97481.37;;;22.62;26.35
81990;BME280;71485;51.638;-0.182;2024-02-23T01:59:29;97478.92;;;23.10;26.37
81990;BME280;71485;51.638;-0.182;2024-02-23T02:01:55;97479.02;;;23.10;26.33
81990;BME280;71485;51.638;-0.182;2024-02-23T02:04:19;97478.40;;;23.17;26.28
81990;BME280;71485;51.638;-0.182;2024-02-23T02:06:45;97468.92;;;23.16;26.29
81990;BME280;71485;51.638;-0.182;2024-02-23T02:09:11;97464.96;;;23.16;26.28
81990;BME280;71485;51.638;-0.182;2024-02-23T02:11:46;97459.91;;;23.03;26.33
81990;BME280;71485;51.638;-0.182;2024-02-23T02:14:03;97458.03;;;22.62;26.29
81990;BME280;71485;51.638;-0.182;2024-02-23T02:16:27;97451.61;;;23.11;26.28
81990;BME280;71485;51.638;-0.182;2024-02-23T02:18:53;97447.33;;;23.02;26.32
81990;BME280;71485;51.638;-0.182;2024-02-23T02:21:18;97440.91;;;23.04;26.32
81990;BME280;71485;51.638;-0.182;2024-02-23T02:23:44;97443.54;;;22.92;26.40
81990;BME280;71485;51.638;-0.182;2024-02-23T02:26:10;97441.06;;;22.67;26.39
81990;BME280;71485;51.638;-0.182;2024-02-23T02:28:35;97428.33;;;22.97;26.34
81990;BME280;71485;51.638;-0.182;2024-02-23T02:31:01;97425.45;;;22.47;26.35
81990;BME280;71485;51.638;-0.182;2024-02-23T02:33:28;97421.21;;;22.95;26.31
81990;BME280;71485;51.638;-0.182;2024-02-23T02:35:54;97417.27;;;23.00;26.28
81990;BME280;71485;51.638;-0.182;2024-02-23T02:38:19;97412.59;;;23.06;26.21
81990;BME280;71485;51.638;-0.182;2024-02-23T02:40:44;97411.45;;;23.07;26.20
81990;BME280;71485;51.638;-0.182;2024-02-23T02:43:10;97401.09;;;22.81;26.21
81990;BME280;71485;51.638;-0.182;2024-02-23T02:45:37;97396.32;;;22.80;26.23
81990;BME280;71485;51.638;-0.182;2024-02-23T02:48:03;97393.03;;;22.72;26.27
81990;BME280;71485;51.638;-0.182;2024-02-23T02:50:32;97386.83;;;22.94;26.30
81990;BME280;71485;51.638;-0.182;2024-02-23T02:52:56;97383.54;;;22.94;26.27
81990;BME280;71485;51.638;-0.182;2024-02-23T02:55:20;97381.50;;;22.97;26.25
81990;BME280;71485;51.638;-0.182;2024-02-23T02:57:45;97378.82;;;22.90;26.29
81990;BME280;71485;51.638;-0.182;2024-02-23T03:00:11;97373.06;;;22.79;26.38
81990;BME280;71485;51.638;-0.182;2024-02-23T03:02:34;97374.10;;;22.83;26.35
81990;BME280;71485;51.638;-0.182;2024-02-23T03:05:00;97374.15;;;22.79;26.34
81990;BME280;71485;51.638;-0.182;2024-02-23T03:07:26;97364.84;;;22.79;26.36
81990;BME280;71485;51.638;-0.182;2024-02-23T03:09:51;97360.28;;;23.27;26.34
81990;BME280;71485;51.638;-0.182;2024-02-23T03:12:17;97356.61;;;22.82;26.31
81990;BME280;71485;51.638;-0.182;2024-02-23T03:14:43;97352.33;;;22.86;26.24
81990;BME280;71485;51.638;-0.182;2024-02-23T03:17:08;97351.25;;;22.83;26.24
81990;BME280;71485;51.638;-0.182;2024-02-23T03:19:33;97348.45;;;22.84;26.22
81990;BME280;71485;51.638;-0.182;2024-02-23T03:22:01;97340.34;;;22.81;26.22
81990;BME280;71485;51.638;-0.182;2024-02-23T03:24:24;97335.82;;;23.06;26.23
81990;BME280;71485;51.638;-0.182;2024-02-23T03:27:04;97332.70;;;22.78;26.24
81990;BME280;71485;51.638;-0.182;2024-02-23T03:29:20;97323.21;;;22.84;26.19
81990;BME280;71485;51.638;-0.182;2024-02-23T03:31:50;97321.80;;;22.81;26.19
81990;BME280;71485;51.638;-0.182;2024-02-23T03:34:15;97320.13;;;22.81;26.17
81990;BME280;71485;51.638;-0.182;2024-02-23T03:36:34;97322.81;;;22.78;26.16
81990;BME280;71485;51.638;-0.182;2024-02-23T03:39:05;97319.84;;;22.76;26.16
81990;BME280;71485;51.638;-0.182;2024-02-23T03:41:30;97322.33;;;22.76;26.17
81990;BME280;71485;51.638;-0.182;2024-02-23T03:43:53;97324.18;;;22.50;26.19
81990;BME280;71485;51.638;-0.182;2024-02-23T03:46:22;97319.54;;;22.73;26.20
81990;BME280;71485;51.638;-0.182;2024-02-23T03:48:42;97320.25;;;22.72;26.21
81990;BME280;71485;51.638;-0.182;2024-02-23T03:51:08;97325.13;;;22.72;26.20
81990;BME280;71485;51.638;-0.182;2024-02-23T03:53:34;97322.86;;;22.48;25.31
81990;BME280;71485;51.638;-0.182;2024-02-23T03:56:03;97326.72;;;23.46;25.41
81990;BME280;71485;51.638;-0.182;2024-02-23T03:58:33;97324.81;;;22.83;25.75
81990;BME280;71485;51.638;-0.182;2024-02-23T04:00:49;97326.33;;;22.95;25.89
81990;BME280;71485;51.638;-0.182;2024-02-23T04:03:14;97322.64;;;22.87;25.96
81990;BME280;71485;51.638;-0.182;2024-02-23T04:05:40;97331.13;;;22.80;26.03
81990;BME280;71485;51.638;-0.182;2024-02-23T04:08:07;97326.15;;;22.76;26.05
81990;BME280;71485;51.638;-0.182;2024-02-23T04:10:32;97321.91;;;22.70;26.11
81990;BME280;71485;51.638;-0.182;2024-02-23T04:13:01;97333.32;;;22.70;26.11
81990;BME280;71485;51.638;-0.182;2024-02-23T04:15:25;97338.45;;;22.67;26.12
81990;BME280;71485;51.638;-0.182;2024-02-23T04:17:51;97341.89;;;22.68;26.06
81990;BME280;71485;51.638;-0.182;2024-02-23T04:20:14;97339.63;;;22.70;26.06
81990;BME280;71485;51.638;-0.182;2024-02-23T04:22:39;97342.43;;;22.68;26.10
81990;BME280;71485;51.638;-0.182;2024-02-23T04:25:05;97341.35;;;22.67;26.07
81990;BME280;71485;51.638;-0.182;2024-02-23T04:27:31;97350.74;;;22.64;26.09
81990;BME280;71485;51.638;-0.182;2024-02-23T04:29:56;97342.82;;;22.60;26.12
81990;BME280;71485;51.638;-0.182;2024-02-23T04:32:22;97343.56;;;22.64;26.08
81990;BME280;71485;51.638;-0.182;2024-02-23T04:34:47;97342.64;;;22.87;26.05
81990;BME280;71485;51.638;-0.182;2024-02-23T04:37:13;97349.96;;;22.68;25.98
81990;BME280;71485;51.638;-0.182;2024-02-23T04:39:40;97351.97;;;22.90;25.93
81990;BME280;71485;51.638;-0.182;2024-02-23T04:42:04;97356.80;;;22.43;25.87
81990;BME280;71485;51.638;-0.182;2024-02-23T04:44:30;97347.02;;;22.70;25.80
81990;BME280;71485;51.638;-0.182;2024-02-23T04:46:55;97346.69;;;22.74;25.74
81990;BME280;71485;51.638;-0.182;2024-02-23T04:49:22;97344.69;;;22.73;25.72
81990;BME280;71485;51.638;-0.182;2024-02-23T04:51:47;97344.96;;;22.70;25.71
81990;BME280;71485;51.638;-0.182;2024-02-23T04:54:12;97341.22;;;22.68;25.71
81990;BME280;71485;51.638;-0.182;2024-02-23T04:56:38;97351.12;;;22.89;25.71
81990;BME280;71485;51.638;-0.182;2024-02-23T04:59:04;97357.51;;;22.68;25.67
81990;BME280;71485;51.638;-0.182;2024-02-23T05:01:35;97359.95;;;22.67;25.68
81990;BME280;71485;51.638;-0.182;2024-02-23T05:03:55;97363.04;;;22.67;25.68
81990;BME280;71485;51.638;-0.182;2024-02-23T05:06:21;97370.74;;;22.65;25.67
81990;BME280;71485;51.638;-0.182;2024-02-23T05:08:46;97376.20;;;22.64;25.69
81990;BME280;71485;51.638;-0.182;2024-02-23T05:11:14;97376.39;;;22.60;25.69
81990;BME280;71485;51.638;-0.182;2024-02-23T05:13:38;97374.67;;;22.63;25.66
81990;BME280;71485;51.638;-0.182;2024-02-23T05:16:03;97379.44;;;22.15;25.65
81990;BME280;71485;51.638;-0.182;2024-02-23T05:18:28;97382.05;;;22.57;25.70
81990;BME280;71485;51.638;-0.182;2024-02-23T05:20:54;97378.67;;;22.62;25.65
81990;BME280;71485;51.638;-0.182;2024-02-23T05:23:20;97380.17;;;22.59;25.66
81990;BME280;71485;51.638;-0.182;2024-02-23T05:25:45;97380.64;;;22.85;25.64
81990;BME280;71485;51.638;-0.182;2024-02-23T05:28:11;97381.90;;;22.58;25.65
81990;BME280;71485;51.638;-0.182;2024-02-23T05:30:37;97382.37;;;22.61;25.61
81990;BME280;71485;51.638;-0.182;2024-02-23T05:33:02;97384.03;;;22.40;25.56
81990;BME280;71485;51.638;-0.182;2024-02-23T05:35:28;97392.54;;;22.65;25.56
81990;BME280;71485;51.638;-0.182;2024-02-23T05:37:54;97395.01;;;23.11;25.56
81990;BME280;71485;51.638;-0.182;2024-02-23T05:40:23;97392.58;;;22.65;25.55
81990;BME280;71485;51.638;-0.182;2024-02-23T05:42:45;97397.79;;;22.67;25.52
81990;BME280;71485;51.638;-0.182;2024-02-23T05:45:14;97396.58;;;22.90;25.38
81990;BME280;71485;51.638;-0.182;2024-02-23T05:47:37;97389.84;;;22.87;25.67
81990;BME280;71485;51.638;-0.182;2024-02-23T05:50:08;97388.69;;;22.26;25.87
81990;BME280;71485;51.638;-0.182;2024-02-23T05:52:27;97393.65;;;22.45;26.00
81990;BME280;71485;51.638;-0.182;2024-02-23T05:54:53;97399.69;;;22.67;26.10
81990;BME280;71485;51.638;-0.182;2024-02-23T05:57:20;97407.17;;;22.89;26.19
81990;BME280;71485;51.638;-0.182;2024-02-23T05:59:45;97409.66;;;22.38;26.28
81990;BME280;71485;51.638;-0.182;2024-02-23T06:02:10;97420.24;;;22.34;26.39
81990;BME280;71485;51.638;-0.182;2024-02-23T06:04:36;97416.19;;;22.56;26.44
81990;BME280;71485;51.638;-0.182;2024-02-23T06:07:01;97419.39;;;22.08;26.49
81990;BME280;71485;51.638;-0.182;2024-02-23T06:09:27;97421.72;;;22.80;26.54
81990;BME280;71485;51.638;-0.182;2024-02-23T06:11:53;97424.28;;;22.32;26.59
81990;BME280;71485;51.638;-0.182;2024-02-23T06:14:18;97429.09;;;22.56;26.63
81990;BME280;71485;51.638;-0.182;2024-02-23T06:16:43;97435.26;;;22.78;26.65
81990;BME280;71485;51.638;-0.182;2024-02-23T06:19:09;97438.11;;;22.19;26.76
81990;BME280;71485;51.638;-0.182;2024-02-23T06:21:35;97439.15;;;22.25;26.93
81990;BME280;71485;51.638;-0.182;2024-02-23T06:24:00;97442.61;;;22.00;26.95
81990;BME280;71485;51.638;-0.182;2024-02-23T06:26:26;97448.19;;;22.19;26.93
81990;BME280;71485;51.638;-0.182;2024-02-23T06:28:51;97451.14;;;22.02;26.86
81990;BME280;71485;51.638;-0.182;2024-02-23T06:31:17;97448.36;;;22.15;26.71
81990;BME280;71485;51.638;-0.182;2024-02-23T06:33:44;97447.36;;;21.48;26.65
81990;BME280;71485;51.638;-0.182;2024-02-23T06:36:09;97444.19;;;23.08;25.68
81990;BME280;71485;51.638;-0.182;2024-02-23T06:38:35;97449.97;;;22.86;25.88
81990;BME280;71485;51.638;-0.182;2024-02-23T06:41:00;97449.47;;;22.70;26.02
81990;BME280;71485;51.638;-0.182;2024-02-23T06:43:27;97448.51;;;22.83;26.12
81990;BME280;71485;51.638;-0.182;2024-02-23T06:45:51;97447.77;;;22.71;26.24
81990;BME280;71485;51.638;-0.182;2024-02-23T06:48:16;97450.79;;;22.49;26.25
81990;BME280;71485;51.638;-0.182;2024-02-23T06:50:44;97450.92;;;22.39;26.35
81990;BME280;71485;51.638;-0.182;2024-02-23T06:53:08;97452.30;;;22.47;26.33
81990;BME280;71485;51.638;-0.182;2024-02-23T06:55:34;97452.56;;;22.46;26.36
81990;BME280;71485;51.638;-0.182;2024-02-23T06:58:01;97445.71;;;22.46;26.35
81990;BME280;71485;51.638;-0.182;2024-02-23T07:00:26;97452.58;;;22.52;26.28
81990;BME280;71485;51.638;-0.182;2024-02-23T07:02:51;97461.88;;;22.76;26.26
81990;BME280;71485;51.638;-0.182;2024-02-23T07:05:17;97470.63;;;22.46;26.28
81990;BME280;71485;51.638;-0.182;2024-02-23T07:07:44;97475.43;;;22.56;26.22
81990;BME280;71485;51.638;-0.182;2024-02-23T07:10:13;97478.46;;;22.33;26.19
81990;BME280;71485;51.638;-0.182;2024-02-23T07:12:33;97480.69;;;23.04;26.19
81990;BME280;71485;51.638;-0.182;2024-02-23T07:14:59;97487.68;;;22.64;26.11
81990;BME280;71485;51.638;-0.182;2024-02-23T07:17:24;97489.76;;;22.61;26.10
81990;BME280;71485;51.638;-0.182;2024-02-23T07:19:50;97487.44;;;22.64;26.08
81990;BME280;71485;51.638;-0.182;2024-02-23T07:22:17;97491.31;;;22.57;26.17
81990;BME280;71485;51.638;-0.182;2024-02-23T07:24:41;97498.11;;;22.91;26.27
81990;BME280;71485;51.638;-0.182;2024-02-23T07:27:06;97497.41;;;22.59;26.14
81990;BME280;71485;51.638;-0.182;2024-02-23T07:29:33;97497.73;;;22.97;26.21
81990;BME280;71485;51.638;-0.182;2024-02-23T07:31:58;97495.87;;;22.74;26.18
81990;BME280;71485;51.638;-0.182;2024-02-23T07:34:23;97501.19;;;22.44;26.21
81990;BME280;71485;51.638;-0.182;2024-02-23T07:36:52;97508.47;;;22.54;26.12
81990;BME280;71485;51.638;-0.182;2024-02-23T07:39:17;97505.75;;;22.40;26.25
81990;BME280;71485;51.638;-0.182;2024-02-23T07:41:40;97503.54;;;22.49;26.14
81990;BME280;71485;51.638;-0.182;2024-02-23T07:44:06;97504.83;;;22.47;26.18
81990;BME280;71485;51.638;-0.182;2024-02-23T07:46:31;97506.51;;;22.26;26.38
81990;BME280;71485;51.638;-0.182;2024-02-23T07:49:07;97507.68;;;22.26;26.41
81990;BME280;71485;51.638;-0.182;2024-02-23T07:51:23;97508.20;;;22.57;26.35
81990;BME280;71485;51.638;-0.182;2024-02-23T07:53:53;97513.97;;;22.52;26.39
81990;BME280;71485;51.638;-0.182;2024-02-23T07:56:14;97519.06;;;22.75;26.40
81990;BME280;71485;51.638;-0.182;2024-02-23T07:58:41;97517.69;;;22.52;26.42
81990;BME280;71485;51.638;-0.182;2024-02-23T08:01:05;97519.41;;;22.34;26.33
81990;BME280;71485;51.638;-0.182;2024-02-23T08:03:31;97526.61;;;22.23;26.45
81990;BME280;71485;51.638;-0.182;2024-02-23T08:05:56;97525.16;;;22.62;26.55
81990;BME280;71485;51.638;-0.182;2024-02-23T08:08:23;97525.90;;;21.96;26.73
81990;BME280;71485;51.638;-0.182;2024-02-23T08:10:48;97535.27;;;22.44;26.76
81990;BME280;71485;51.638;-0.182;2024-02-23T08:13:18;97533.77;;;21.96;26.77
81990;BME280;71485;51.638;-0.182;2024-02-23T08:15:39;97536.08;;;22.37;26.86
81990;BME280;71485;51.638;-0.182;2024-02-23T08:18:06;97536.09;;;21.88;26.89
81990;BME280;71485;51.638;-0.182;2024-02-23T08:20:30;97547.01;;;22.39;26.88
81990;BME280;71485;51.638;-0.182;2024-02-23T08:22:56;97546.13;;;22.17;26.87
81990;BME280;71485;51.638;-0.182;2024-02-23T08:25:22;97547.31;;;22.40;26.88
81990;BME280;71485;51.638;-0.182;2024-02-23T08:27:47;97546.63;;;22.22;26.86
81990;BME280;71485;51.638;-0.182;2024-02-23T08:30:14;97549.99;;;21.99;26.84
81990;BME280;71485;51.638;-0.182;2024-02-23T08:32:45;97556.30;;;22.29;26.80
81990;BME280;71485;51.638;-0.182;2024-02-23T08:35:04;97561.73;;;21.96;27.74
81990;BME280;71485;51.638;-0.182;2024-02-23T08:37:29;97561.16;;;21.99;27.88
81990;BME280;71485;51.638;-0.182;2024-02-23T08:39:59;97559.56;;;22.16;28.11
81990;BME280;71485;51.638;-0.182;2024-02-23T08:42:21;97562.28;;;22.25;28.18
81990;BME280;71485;51.638;-0.182;2024-02-23T08:44:46;97571.64;;;22.06;28.23
81990;BME280;71485;51.638;-0.182;2024-02-23T08:47:12;97565.90;;;22.13;28.42
81990;BME280;71485;51.638;-0.182;2024-02-23T08:49:39;97561.77;;;22.59;28.14
81990;BME280;71485;51.638;-0.182;2024-02-23T08:52:04;97566.04;;;22.03;27.80
81990;BME280;71485;51.638;-0.182;2024-02-23T08:54:33;97571.01;;;22.81;27.62
81990;BME280;71485;51.638;-0.182;2024-02-23T08:56:55;97573.78;;;22.82;27.76
81990;BME280;71485;51.638;-0.182;2024-02-23T08:59:21;97582.45;;;22.89;28.05
81990;BME280;71485;51.638;-0.182;2024-02-23T09:01:46;97582.85;;;22.46;28.16
81990;BME280;71485;51.638;-0.182;2024-02-23T09:04:12;97580.76;;;22.54;28.11
81990;BME280;71485;51.638;-0.182;2024-02-23T09:06:37;97580.95;;;22.59;28.15
81990;BME280;71485;51.638;-0.182;2024-02-23T09:09:03;97586.94;;;22.36;28.49
81990;BME280;71485;51.638;-0.182;2024-02-23T09:11:29;97593.15;;;22.59;29.02
81990;BME280;71485;51.638;-0.182;2024-02-23T09:13:55;97596.57;;;22.62;29.07
81990;BME280;71485;51.638;-0.182;2024-02-23T09:16:20;97593.04;;;22.75;29.19
81990;BME280;71485;51.638;-0.182;2024-02-23T09:18:45;97589.50;;;22.83;28.87
81990;BME280;71485;51.638;-0.182;2024-02-23T09:21:11;97589.95;;;22.88;28.60
81990;BME280;71485;51.638;-0.182;2024-02-23T09:23:36;97592.69;;;22.90;28.41
81990;BME280;71485;51.638;-0.182;2024-02-23T09:26:09;97598.16;;;22.46;28.25
81990;BME280;71485;51.638;-0.182;2024-02-23T09:28:30;97596.61;;;22.93;28.20
81990;BME280;71485;51.638;-0.182;2024-02-23T09:30:53;97600.24;;;22.98;28.09
81990;BME280;71485;51.638;-0.182;2024-02-23T09:33:19;97602.54;;;23.03;27.98
81990;BME280;71485;51.638;-0.182;2024-02-23T09:35:44;97597.92;;;23.06;27.91
81990;BME280;71485;51.638;-0.182;2024-02-23T09:38:10;97598.32;;;23.10;27.89
81990;BME280;71485;51.638;-0.182;2024-02-23T09:40:35;97589.02;;;23.15;27.81
81990;BME280;71485;51.638;-0.182;2024-02-23T09:43:02;97591.37;;;22.94;27.79
81990;BME280;71485;51.638;-0.182;2024-02-23T09:45:27;97588.03;;;23.22;27.78
81990;BME280;71485;51.638;-0.182;2024-02-23T09:47:54;97595.09;;;23.28;27.77
81990;BME280;71485;51.638;-0.182;2024-02-23T09:50:20;97594.75;;;23.31;27.74
81990;BME280;71485;51.638;-0.182;2024-02-23T09:52:43;97598.35;;;23.36;27.72
81990;BME280;71485;51.638;-0.182;2024-02-23T09:55:09;97597.91;;;23.37;27.73
81990;BME280;71485;51.638;-0.182;2024-02-23T09:57:35;97602.82;;;23.33;27.74
81990;BME280;71485;51.638;-0.182;2024-02-23T10:00:04;97599.22;;;22.91;28.19
81990;BME280;71485;51.638;-0.182;2024-02-23T10:02:30;97601.06;;;23.42;28.45
81990;BME280;71485;51.638;-0.182;2024-02-23T10:04:54;97606.44;;;23.49;28.43
81990;BME280;71485;51.638;-0.182;2024-02-23T10:07:22;97610.25;;;23.28;28.49
81990;BME280;71485;51.638;-0.182;2024-02-23T10:09:45;97607.22;;;23.34;28.57
81990;BME280;71485;51.638;-0.182;2024-02-23T10:12:09;97603.97;;;23.41;28.70
81990;BME280;71485;51.638;-0.182;2024-02-23T10:14:35;97608.07;;;23.46;28.53
81990;BME280;71485;51.638;-0.182;2024-02-23T10:17:00;97606.22;;;23.73;28.39
81990;BME280;71485;51.638;-0.182;2024-02-23T10:19:25;97608.96;;;23.75;28.29
81990;BME280;71485;51.638;-0.182;2024-02-23T10:21:51;97608.67;;;23.76;28.20
81990;BME280;71485;51.638;-0.182;2024-02-23T10:24:17;97614.10;;;23.30;28.14
81990;BME280;71485;51.638;-0.182;2024-02-23T10:26:42;97615.75;;;23.58;28.10
81990;BME280;71485;51.638;-0.182;2024-02-23T10:29:08;97620.47;;;23.85;28.05
81990;BME280;71485;51.638;-0.182;2024-02-23T10:31:35;97621.39;;;23.87;28.00
81990;BME280;71485;51.638;-0.182;2024-02-23T10:34:00;97621.13;;;23.90;27.97
81990;BME280;71485;51.638;-0.182;2024-02-23T10:36:28;97621.43;;;23.95;27.91
81990;BME280;71485;51.638;-0.182;2024-02-23T10:38:56;97624.46;;;23.77;27.89
81990;BME280;71485;51.638;-0.182;2024-02-23T10:41:17;97618.53;;;23.85;27.80
81990;BME280;71485;51.638;-0.182;2024-02-23T10:43:43;97619.19;;;23.90;27.79
81990;BME280;71485;51.638;-0.182;2024-02-23T10:46:08;97618.07;;;23.94;27.76
81990;BME280;71485;51.638;-0.182;2024-02-23T10:48:32;97617.63;;;23.99;27.84
81990;BME280;71485;51.638;-0.182;2024-02-23T10:50:59;97621.18;;;23.81;28.10
81990;BME280;71485;51.638;-0.182;2024-02-23T10:53:24;97618.43;;;24.10;28.26
81990;BME280;71485;51.638;-0.182;2024-02-23T10:55:52;97616.56;;;23.93;28.31
81990;BME280;71485;51.638;-0.182;2024-02-23T10:58:17;97624.00;;;23.97;28.29
81990;BME280;71485;51.638;-0.182;2024-02-23T11:00:40;97622.43;;;23.98;28.23
81990;BME280;71485;51.638;-0.182;2024-02-23T11:03:06;97626.23;;;24.01;28.17
81990;BME280;71485;51.638;-0.182;2024-02-23T11:05:32;97628.34;;;24.27;28.15
81990;BME280;71485;51.638;-0.182;2024-02-23T11:07:59;97630.83;;;24.30;28.13
81990;BME280;71485;51.638;-0.182;2024-02-23T11:10:24;97630.56;;;24.08;28.10
81990;BME280;71485;51.638;-0.182;2024-02-23T11:12:58;97629.19;;;24.27;27.97
81990;BME280;71485;51.638;-0.182;2024-02-23T11:15:25;97624.16;;;24.00;27.90
81990;BME280;71485;51.638;-0.182;2024-02-23T11:17:39;97630.10;;;24.22;27.77
81990;BME280;71485;51.638;-0.182;2024-02-23T11:20:06;97632.10;;;23.98;27.70
81990;BME280;71485;51.638;-0.182;2024-02-23T11:22:31;97630.02;;;23.98;27.65
81990;BME280;71485;51.638;-0.182;2024-02-23T11:25:00;97627.66;;;23.99;27.58
81990;BME280;71485;51.638;-0.182;2024-02-23T11:27:24;97628.34;;;24.25;27.54
81990;BME280;71485;51.638;-0.182;2024-02-23T11:29:47;97627.36;;;24.05;27.49
81990;BME280;71485;51.638;-0.182;2024-02-23T11:32:14;97630.49;;;24.06;27.47
81990;BME280;71485;51.638;-0.182;2024-02-23T11:34:41;97638.41;;;24.05;27.48
81990;BME280;71485;51.638;-0.182;2024-02-23T11:37:12;97634.67;;;23.82;27.44
81990;BME280;71485;51.638;-0.182;2024-02-23T11:39:30;97635.12;;;24.27;27.43
81990;BME280;71485;51.638;-0.182;2024-02-23T11:41:58;97635.21;;;24.25;27.43
81990;BME280;71485;51.638;-0.182;2024-02-23T11:44:21;97637.77;;;24.24;27.41
81990;BME280;71485;51.638;-0.182;2024-02-23T11:46:46;97633.43;;;24.24;27.38
81990;BME280;71485;51.638;-0.182;2024-02-23T11:49:14;97630.70;;;24.02;27.38
81990;BME280;71485;51.638;-0.182;2024-02-23T11:51:39;97627.05;;;24.03;27.34
81990;BME280;71485;51.638;-0.182;2024-02-23T11:54:03;97628.44;;;23.56;27.33
81990;BME280;71485;51.638;-0.182;2024-02-23T11:56:29;97629.14;;;24.06;27.26
81990;BME280;71485;51.638;-0.182;2024-02-23T11:58:56;97634.57;;;24.08;27.22
81990;BME280;71485;51.638;-0.182;2024-02-23T12:01:20;97634.84;;;24.31;27.24
81990;BME280;71485;51.638;-0.182;2024-02-23T12:03:51;97633.73;;;24.07;27.21
81990;BME280;71485;51.638;-0.182;2024-02-23T12:06:11;97633.52;;;24.11;27.16
81990;BME280;71485;51.638;-0.182;2024-02-23T12:08:37;97635.29;;;24.15;27.11
81990;BME280;71485;51.638;-0.182;2024-02-23T12:11:05;97633.41;;;23.68;27.09
81990;BME280;71485;51.638;-0.182;2024-02-23T12:13:31;97630.59;;;23.94;27.08
81990;BME280;71485;51.638;-0.182;2024-02-23T12:15:53;97626.62;;;24.18;27.09
81990;BME280;71485;51.638;-0.182;2024-02-23T12:18:21;97624.13;;;24.18;27.07
81990;BME280;71485;51.638;-0.182;2024-02-23T12:20:47;97620.65;;;24.20;27.06
81990;BME280;71485;51.638;-0.182;2024-02-23T12:23:12;97618.88;;;24.20;27.06
81990;BME280;71485;51.638;-0.182;2024-02-23T12:25:36;97624.50;;;24.51;27.04
81990;BME280;71485;51.638;-0.182;2024-02-23T12:28:01;97626.79;;;24.08;27.05
81990;BME280;71485;51.638;-0.182;2024-02-23T12:30:27;97625.80;;;24.10;27.08
81990;BME280;71485;51.638;-0.182;2024-02-23T12:33:04;97625.15;;;24.40;27.07
81990;BME280;71485;51.638;-0.182;2024-02-23T12:35:19;97627.50;;;24.35;27.23
81990;BME280;71485;51.638;-0.182;2024-02-23T12:37:46;97623.59;;;24.09;27.30
81990;BME280;71485;51.638;-0.182;2024-02-23T12:40:12;97623.06;;;24.34;27.43